METAR Data
IDs: Format: Raw Decoded Include TAF

Data at: 2148 UTC 02 Aug 2021

KMDW 022053Z 07010KT 10SM FEW070 SCT100 BKN150 24/11 A3012 RMK SLPNO